ADDS TAF Data INFO
IDs: Format: Raw Decoded Include METARs

Data at: 0259 UTC 21 Jun 2018

KDVN 210252Z AUTO 14007KT 10SM SCT044 BKN055 OVC100 20/19 A2982 RMK AO2 LTG DSNT NW RAE19 SLP091 P0001 60018 T02000189 53001

No TAF found for KDVN

KMLI 210252Z 13007KT 10SM OVC006 21/21 A2980 RMK AO2 LTG DSNT SW RAE03 SLP088 P0000 60020 T02110206 53000

KMLI 210203Z 2102/2124 10006KT P6SM -RA BKN040
  FM210700 10007KT 5SM SHRA BR OVC010
  FM210900 11006KT 4SM SHRA BR OVC008
  FM211600 09005KT P6SM VCTS OVC010CB
  FM212000 07008KT 6SM SHRA VCTS OVC020CB